createdAt,value
2023-04-07T00:01:07.712Z,66.27
2023-04-07T00:06:10.508Z,66.79
2023-04-07T00:11:14.788Z,66.73
2023-04-07T00:16:17.731Z,66.00
2023-04-07T00:21:20.664Z,65.11
2023-04-07T00:26:25.520Z,65.71
2023-04-07T00:31:28.485Z,64.99
2023-04-07T00:36:31.711Z,65.24
2023-04-07T00:41:36.918Z,65.16
2023-04-07T00:46:40.878Z,65.19
2023-04-07T00:51:44.051Z,65.57
2023-04-07T00:56:48.753Z,65.80
2023-04-07T01:01:58.927Z,65.68
2023-04-07T01:07:06.933Z,65.21
2023-04-07T01:12:29.003Z,65.20
2023-04-07T01:17:35.955Z,64.63
2023-04-07T01:22:44.009Z,64.54
2023-04-07T01:28:09.925Z,65.23
2023-04-07T01:33:16.672Z,64.54
2023-04-07T01:38:20.819Z,64.27
2023-04-07T01:43:25.387Z,64.85
2023-04-07T01:48:30.330Z,64.79
2023-04-07T01:53:34.225Z,65.61
2023-04-07T01:58:37.153Z,66.06
2023-04-07T02:03:50.734Z,67.38
2023-04-07T02:08:58.191Z,68.98
2023-04-07T02:14:02.787Z,70.40
2023-04-07T02:19:11.243Z,69.66
2023-04-07T02:24:14.127Z,71.00
2023-04-07T02:29:17.031Z,72.16
2023-04-07T02:34:21.257Z,73.57
2023-04-07T02:39:24.347Z,73.36
2023-04-07T02:44:27.110Z,74.09
2023-04-07T02:49:31.287Z,74.97
2023-04-07T02:54:35.420Z,75.71
2023-04-07T02:59:38.924Z,76.09
2023-04-07T03:04:44.246Z,76.48
2023-04-07T03:09:47.109Z,77.69
2023-04-07T03:14:53.247Z,78.74
2023-04-07T03:19:59.466Z,78.06
2023-04-07T03:25:03.393Z,78.42
2023-04-07T03:30:07.531Z,78.73
2023-04-07T03:35:13.006Z,78.83
2023-04-07T03:40:16.167Z,79.22
2023-04-07T03:45:19.344Z,79.63
2023-04-07T03:50:26.404Z,80.25
2023-04-07T03:55:39.161Z,80.58
2023-04-07T04:00:53.744Z,81.16
2023-04-07T04:05:58.034Z,81.16
2023-04-07T04:11:04.890Z,81.09
2023-04-07T04:16:15.250Z,81.34
2023-04-07T04:21:20.772Z,81.69
2023-04-07T04:26:26.064Z,81.80
2023-04-07T04:31:32.607Z,81.63
2023-04-07T04:36:38.438Z,81.64
2023-04-07T04:41:42.456Z,81.85
2023-04-07T04:46:49.790Z,81.76
2023-04-07T04:51:54.085Z,82.00
2023-04-07T04:56:57.601Z,81.91
2023-04-07T05:02:01.031Z,81.73
2023-04-07T05:07:05.692Z,81.61
2023-04-07T05:12:08.878Z,81.67
2023-04-07T05:17:18.069Z,81.49
2023-04-07T05:22:22.588Z,81.60
2023-04-07T05:27:27.347Z,81.41
2023-04-07T05:32:34.925Z,80.69
2023-04-07T05:37:45.578Z,80.22
2023-04-07T05:42:48.461Z,80.37
2023-04-07T05:47:52.039Z,80.50
2023-04-07T05:53:03.374Z,80.43
2023-04-07T05:58:07.424Z,80.16
2023-04-07T06:03:11.646Z,79.34
2023-04-07T06:08:29.254Z,78.67
2023-04-07T06:13:32.590Z,78.30
2023-04-07T06:18:35.523Z,77.40
2023-04-07T06:23:40.005Z,76.53
2023-04-07T06:28:43.171Z,75.67
2023-04-07T06:33:46.233Z,75.48
2023-04-07T06:38:51.004Z,74.83
2023-04-07T06:43:53.875Z,74.15
2023-04-07T06:48:56.684Z,73.84
2023-04-07T06:54:00.839Z,72.61
2023-04-07T06:59:03.645Z,72.73
2023-04-07T07:04:07.115Z,71.57
2023-04-07T07:09:11.347Z,71.63
2023-04-07T07:14:14.374Z,70.79
2023-04-07T07:19:17.232Z,70.45
2023-04-07T07:24:21.420Z,69.16
2023-04-07T07:29:24.311Z,69.95
2023-04-07T07:34:52.421Z,68.42
2023-04-07T07:39:56.500Z,70.79
2023-04-07T07:44:59.318Z,67.93
2023-04-07T07:50:01.984Z,68.27
2023-04-07T07:55:07.787Z,66.78
2023-04-07T08:00:11.997Z,64.48
2023-04-07T08:05:17.271Z,63.27
2023-04-07T08:15:52.188Z,64.08
2023-04-07T08:27:56.066Z,62.35
2023-04-07T08:33:00.308Z,61.56
2023-04-07T08:38:04.016Z,57.62
2023-04-07T08:43:10.619Z,57.45
2023-04-07T08:48:18.772Z,56.52
2023-04-07T08:53:29.440Z,57.18
2023-04-07T08:58:32.348Z,56.11
2023-04-07T09:03:37.182Z,54.63
2023-04-07T09:08:40.170Z,54.33
2023-04-07T09:13:43.043Z,54.96
2023-04-07T09:18:47.137Z,51.62
2023-04-07T09:23:50.965Z,49.73
2023-04-07T09:28:55.722Z,50.48
2023-04-07T09:33:59.956Z,50.57
2023-04-07T09:39:09.688Z,48.10
2023-04-07T09:44:12.585Z,48.02
2023-04-07T09:49:16.718Z,48.41
2023-04-07T09:54:33.588Z,48.70
2023-04-07T09:59:38.159Z,48.07
2023-04-07T10:04:42.415Z,46.89
2023-04-07T10:09:45.109Z,47.05
2023-04-07T10:14:48.549Z,47.07
2023-04-07T10:19:53.109Z,44.93
2023-04-07T10:25:00.126Z,45.62
2023-04-07T10:30:07.215Z,43.29
2023-04-07T10:35:11.624Z,42.72
2023-04-07T10:40:31.277Z,39.76
2023-04-07T10:45:56.471Z,39.22
2023-04-07T10:51:30.610Z,39.24
2023-04-07T10:57:10.102Z,39.29
2023-04-07T11:02:35.256Z,38.42
2023-04-07T11:07:47.441Z,37.35
2023-04-07T11:13:01.727Z,34.25
2023-04-07T11:18:11.725Z,35.85
2023-04-07T11:23:18.563Z,36.93
2023-04-07T11:28:21.344Z,36.05
2023-04-07T11:33:27.132Z,34.88
2023-04-07T11:38:36.819Z,32.76
2023-04-07T11:43:41.904Z,31.72
2023-04-07T11:48:47.212Z,32.48
2023-04-07T11:53:56.394Z,33.89
2023-04-07T11:58:59.193Z,33.88
2023-04-07T12:04:04.312Z,33.64
2023-04-07T12:09:09.813Z,32.79
2023-04-07T12:14:12.619Z,31.09
2023-04-07T12:19:15.420Z,31.02
2023-04-07T12:24:19.526Z,30.11
2023-04-07T12:29:22.319Z,32.17
2023-04-07T12:34:25.071Z,32.84
2023-04-07T12:39:29.210Z,31.47
2023-04-07T12:44:32.535Z,28.60
2023-04-07T12:49:35.483Z,27.87
2023-04-07T12:54:40.162Z,31.58
2023-04-07T12:59:42.915Z,28.64
2023-04-07T13:04:46.762Z,29.92
2023-04-07T13:09:51.176Z,32.75
2023-04-07T13:15:00.139Z,33.10
2023-04-07T13:20:04.051Z,34.73
2023-04-07T13:25:08.920Z,33.53
2023-04-07T13:30:12.810Z,31.56
2023-04-07T13:35:17.198Z,29.86
2023-04-07T13:40:21.399Z,29.84
2023-04-07T13:45:24.229Z,29.72
2023-04-07T13:50:27.306Z,31.14
2023-04-07T13:55:31.443Z,30.81
2023-04-07T14:00:35.787Z,29.46
2023-04-07T14:05:38.637Z,31.28
2023-04-07T14:10:43.351Z,29.16
2023-04-07T14:15:46.605Z,29.13
2023-04-07T14:20:49.403Z,30.49
2023-04-07T14:25:53.572Z,31.77
2023-04-07T14:30:56.455Z,30.74
2023-04-07T14:35:59.358Z,26.68
2023-04-07T14:46:10.025Z,26.22
2023-04-07T14:51:13.756Z,26.94
2023-04-07T14:56:17.908Z,27.93
2023-04-07T15:01:20.928Z,29.41
2023-04-07T15:06:23.787Z,31.29
2023-04-07T15:11:28.005Z,31.49
2023-04-07T15:16:30.859Z,31.37
2023-04-07T15:21:33.730Z,29.93
2023-04-07T15:26:37.854Z,30.11
2023-04-07T15:31:40.763Z,31.24
2023-04-07T15:36:43.594Z,31.61
2023-04-07T15:41:47.773Z,31.94
2023-04-07T15:46:50.575Z,32.38
2023-04-07T15:51:53.474Z,32.30
2023-04-07T15:56:57.620Z,32.45
2023-04-07T16:02:00.717Z,32.26
2023-04-07T16:07:03.588Z,32.52
2023-04-07T16:12:07.725Z,32.71
2023-04-07T16:17:10.574Z,32.95
2023-04-07T16:22:13.310Z,32.72
2023-04-07T16:27:17.521Z,32.96
2023-04-07T16:32:20.307Z,32.88
2023-04-07T16:37:23.053Z,33.30
2023-04-07T16:42:28.646Z,33.36
2023-04-07T16:47:32.281Z,32.92
2023-04-07T16:52:35.123Z,33.63
2023-04-07T16:57:39.252Z,33.69
2023-04-07T17:02:42.036Z,33.96
2023-04-07T17:07:44.962Z,34.62
2023-04-07T17:12:53.076Z,34.89
2023-04-07T17:17:55.853Z,35.56
2023-04-07T17:22:58.624Z,35.91
2023-04-07T17:28:02.770Z,35.20
2023-04-07T17:33:08.165Z,35.37
2023-04-07T17:38:11.414Z,35.68
2023-04-07T17:43:16.212Z,35.80
2023-04-07T17:48:18.970Z,36.16
2023-04-07T17:53:21.573Z,36.56
2023-04-07T17:58:26.111Z,36.94
2023-04-07T18:03:29.015Z,36.92
2023-04-07T18:08:32.000Z,37.38
2023-04-07T18:13:36.196Z,37.67
2023-04-07T18:18:39.030Z,38.15
2023-04-07T18:23:41.757Z,38.34
2023-04-07T18:28:46.387Z,38.66
2023-04-07T18:33:49.322Z,39.64
2023-04-07T18:38:52.359Z,39.30
2023-04-07T18:43:56.669Z,39.38
2023-04-07T18:48:59.353Z,39.25
2023-04-07T18:54:01.975Z,39.56
2023-04-07T18:59:07.240Z,39.86
2023-04-07T19:04:10.120Z,39.55
2023-04-07T19:09:12.992Z,39.88
2023-04-07T19:14:17.118Z,40.18
2023-04-07T19:19:19.883Z,40.65
2023-04-07T19:24:22.669Z,40.65
2023-04-07T19:29:27.041Z,40.44
2023-04-07T19:34:29.813Z,40.96
2023-04-07T19:39:32.399Z,40.87
2023-04-07T19:44:37.573Z,41.04
2023-04-07T19:49:40.795Z,40.84
2023-04-07T19:54:43.617Z,41.18
2023-04-07T19:59:48.542Z,41.09
2023-04-07T20:04:51.339Z,41.18
2023-04-07T20:09:55.075Z,41.41
2023-04-07T20:14:59.283Z,41.45
2023-04-07T20:20:02.023Z,41.48
2023-04-07T20:25:05.370Z,41.46
2023-04-07T20:30:10.432Z,42.06
2023-04-07T20:35:13.578Z,42.09
2023-04-07T20:40:16.985Z,42.62
2023-04-07T20:45:23.038Z,42.46
2023-04-07T20:50:25.824Z,42.43
2023-04-07T20:55:28.763Z,43.05
2023-04-07T21:00:32.962Z,43.27
2023-04-07T21:05:35.784Z,43.28
2023-04-07T21:10:38.569Z,44.05
2023-04-07T21:15:43.876Z,44.77
2023-04-07T21:20:47.253Z,45.05
2023-04-07T21:25:50.034Z,45.11
2023-04-07T21:30:55.705Z,45.24
2023-04-07T21:35:58.742Z,45.49
2023-04-07T21:41:01.534Z,45.52
2023-04-07T21:46:05.796Z,45.78
2023-04-07T21:51:08.978Z,45.51
2023-04-07T21:56:13.169Z,45.75
2023-04-07T22:01:18.530Z,45.77
2023-04-07T22:06:21.859Z,46.34
2023-04-07T22:11:24.614Z,46.22
2023-04-07T22:16:28.796Z,46.23
2023-04-07T22:21:32.293Z,46.73
2023-04-07T22:26:35.166Z,47.19
2023-04-07T22:31:39.442Z,47.57
2023-04-07T22:36:42.300Z,47.68
2023-04-07T22:41:45.061Z,48.00
2023-04-07T22:46:49.267Z,48.10
2023-04-07T22:51:52.181Z,48.48
2023-04-07T22:56:54.969Z,48.87
2023-04-07T23:01:59.156Z,48.96
2023-04-07T23:07:02.224Z,49.46
2023-04-07T23:12:05.360Z,49.69
2023-04-07T23:17:09.444Z,49.81
2023-04-07T23:22:12.444Z,49.76
2023-04-07T23:27:15.549Z,49.59
2023-04-07T23:32:19.722Z,49.84
2023-04-07T23:37:22.514Z,50.14
2023-04-07T23:42:25.422Z,50.18
2023-04-07T23:47:29.667Z,50.26
2023-04-07T23:52:32.455Z,50.89
2023-04-07T23:57:35.232Z,51.05
